Погода Кызанна 2 недели

Мангистауская область, Казахстан

12 - 25 июля
  • 12июля
    Сегодня
    +19°
    +35°
    Ясно и безоблачно
    ВремяПогодаТемператураВлажностьДавлениеВетер, м/сВероятность осадков
    02:00Ясно и безоблачно+23°C55 %736 мм4.6 м/с2 %
    05:00Ясно и безоблачно+22°C70 %736 мм5.1 м/с2 %
    08:00Ясно и безоблачно+25°C62 %736 мм3.3 м/с2 %
    11:00Ясно и безоблачно+32°C31 %736 мм6.5 м/с2 %
    14:00Ясно и безоблачно+34°C25 %735 мм8.9 м/с8 %
    17:00Ясно и безоблачно+32°C31 %735 мм8.8 м/с3 %
    20:00Ясно и безоблачно+28°C22 %735 мм8.2 м/с2 %
    23:00Ясно и безоблачно+24°C30 %735 мм4.5 м/с2 %
  • 13июля
    Суббота
    +19°
    +28°
    Ясно и безоблачно
    ВремяПогодаТемператураВлажностьДавлениеВетер, м/сВероятность осадков
    02:00Ясно и безоблачно+21°C42 %734 мм4.5 м/с2 %
    05:00Ясно и безоблачно+20°C47 %734 мм3.8 м/с2 %
    08:00Ясно и безоблачно+22°C46 %734 мм3.8 м/с2 %
    11:00Ясно и безоблачно+26°C32 %734 мм8.6 м/с2 %
    14:00Ясно и безоблачно+27°C29 %734 мм9.1 м/с2 %
    17:00Ясно и безоблачно+27°C27 %734 мм9.3 м/с2 %
    20:00Ясно и безоблачно+25°C26 %733 мм8.4 м/с2 %
    23:00Ясно и безоблачно+23°C30 %733 мм5.2 м/с2 %
  • 14июля
    Воскресенье
    +19°
    +29°
    Пасмурно, сплошная облачность
    ВремяПогодаТемператураВлажностьДавлениеВетер, м/сВероятность осадков
    02:00Ясно и безоблачно+20°C42 %732 мм4.8 м/с2 %
    05:00Ясно и безоблачно+19°C59 %732 мм4.2 м/с2 %
    08:00Ясно и безоблачно+22°C58 %733 мм4.3 м/с2 %
    11:00Ясно и безоблачно+26°C36 %733 мм8.1 м/с4 %
    14:00Пасмурно, сплошная облачность+27°C46 %733 мм8.5 м/с6 %
    17:00Облачно с прояснениями+28°C46 %733 мм7.7 м/с6 %
    20:00Практически безоблачно+27°C46 %733 мм6.9 м/с2 %
    23:00Ясно и безоблачно+23°C63 %734 мм4.0 м/с2 %
  • 15июля
    Понедельник
    +21°
    +33°
    Ясно и безоблачно
    ВремяПогодаТемператураВлажностьДавлениеВетер, м/сВероятность осадков
    02:00Ясно и безоблачно+20°C79 %734 мм3.6 м/с2 %
    05:00Ясно и безоблачно+20°C72 %734 мм4.2 м/с2 %
    08:00Ясно и безоблачно+25°C72 %734 мм4.0 м/с2 %
    11:00Ясно и безоблачно+30°C46 %735 мм4.9 м/с5 %
    14:00Ясно и безоблачно+33°C30 %735 мм6.6 м/с16 %
    17:00Ясно и безоблачно+33°C30 %735 мм7.0 м/с8 %
    20:00Ясно и безоблачно+30°C36 %735 мм6.4 м/с4 %
    23:00Ясно и безоблачно+26°C51 %736 мм3.8 м/с2 %
  • 16июля
    Вторник
    +20°
    +35°
    Практически безоблачно
    ВремяПогодаТемператураВлажностьДавлениеВетер, м/сВероятность осадков
    02:00Ясно и безоблачно+23°C60 %736 мм2.4 м/с2 %
    05:00Ясно и безоблачно+22°C80 %736 мм3.6 м/с2 %
    08:00Ясно и безоблачно+26°C74 %736 мм3.0 м/с2 %
    11:00Ясно и безоблачно+32°C45 %737 мм5.1 м/с4 %
    14:00Практически безоблачно+34°C32 %737 мм4.8 м/с20 %
    17:00Ясно и безоблачно+35°C28 %736 мм5.1 м/с15 %
    20:00Ясно и безоблачно+31°C32 %736 мм5.8 м/с5 %
    23:00Ясно и безоблачно+26°C45 %737 мм3.5 м/с2 %
Мы используем cookies
Соглашаюсь